sensor_id;sensor_type;location;lat;lon;timestamp;P1;durP1;ratioP1;P2;durP2;ratioP2
42978;SDS011;28616;44.746;19.678;2024-03-06T14:22:30;25.30;;;12.27;;
42978;SDS011;28616;44.746;19.678;2024-03-06T14:24:56;22.73;;;12.77;;
42978;SDS011;28616;44.746;19.678;2024-03-06T14:27:22;27.80;;;17.20;;
42978;SDS011;28616;44.746;19.678;2024-03-06T14:29:48;25.00;;;15.77;;
42978;SDS011;28616;44.746;19.678;2024-03-06T14:32:16;29.70;;;17.10;;
42978;SDS011;28616;44.746;19.678;2024-03-06T14:34:44;29.20;;;16.27;;
42978;SDS011;28616;44.746;19.678;2024-03-06T14:37:10;30.52;;;20.90;;
42978;SDS011;28616;44.746;19.678;2024-03-06T14:39:36;39.15;;;21.50;;
42978;SDS011;28616;44.746;19.678;2024-03-06T14:42:02;38.70;;;20.45;;
42978;SDS011;28616;44.746;19.678;2024-03-06T14:44:29;42.25;;;21.00;;
42978;SDS011;28616;44.746;19.678;2024-03-06T14:46:55;33.72;;;20.75;;
42978;SDS011;28616;44.746;19.678;2024-03-06T14:49:22;32.15;;;19.52;;
42978;SDS011;28616;44.746;19.678;2024-03-06T14:51:47;45.90;;;23.50;;
42978;SDS011;28616;44.746;19.678;2024-03-06T14:54:13;34.58;;;21.30;;
42978;SDS011;28616;44.746;19.678;2024-03-06T14:56:39;38.13;;;20.58;;
42978;SDS011;28616;44.746;19.678;2024-03-06T14:59:05;47.47;;;26.30;;
42978;SDS011;28616;44.746;19.678;2024-03-06T15:01:32;41.63;;;22.38;;
42978;SDS011;28616;44.746;19.678;2024-03-06T15:03:58;36.38;;;21.83;;
42978;SDS011;28616;44.746;19.678;2024-03-06T15:06:24;39.33;;;23.40;;
42978;SDS011;28616;44.746;19.678;2024-03-06T15:08:50;39.28;;;19.60;;
42978;SDS011;28616;44.746;19.678;2024-03-06T15:11:16;33.88;;;18.50;;
42978;SDS011;28616;44.746;19.678;2024-03-06T15:13:42;41.85;;;20.83;;
42978;SDS011;28616;44.746;19.678;2024-03-06T15:16:08;48.70;;;23.83;;
42978;SDS011;28616;44.746;19.678;2024-03-06T15:18:34;45.17;;;23.73;;
42978;SDS011;28616;44.746;19.678;2024-03-06T15:20:59;36.03;;;19.23;;
42978;SDS011;28616;44.746;19.678;2024-03-06T15:23:25;30.95;;;16.58;;
42978;SDS011;28616;44.746;19.678;2024-03-06T15:25:51;51.67;;;24.42;;
42978;SDS011;28616;44.746;19.678;2024-03-06T15:28:17;35.78;;;20.02;;
42978;SDS011;28616;44.746;19.678;2024-03-06T15:30:42;77.03;;;40.90;;
42978;SDS011;28616;44.746;19.678;2024-03-06T15:33:08;56.42;;;29.30;;
42978;SDS011;28616;44.746;19.678;2024-03-06T15:35:34;40.42;;;20.90;;
42978;SDS011;28616;44.746;19.678;2024-03-06T15:38:00;96.88;;;53.35;;
42978;SDS011;28616;44.746;19.678;2024-03-06T15:40:26;54.95;;;27.77;;
42978;SDS011;28616;44.746;19.678;2024-03-06T15:42:52;28.20;;;15.00;;
42978;SDS011;28616;44.746;19.678;2024-03-06T15:45:18;31.42;;;16.45;;
42978;SDS011;28616;44.746;19.678;2024-03-06T15:47:44;24.83;;;14.13;;
42978;SDS011;28616;44.746;19.678;2024-03-06T15:50:10;30.55;;;15.15;;
42978;SDS011;28616;44.746;19.678;2024-03-06T15:52:37;28.02;;;15.07;;
42978;SDS011;28616;44.746;19.678;2024-03-06T15:55:06;27.92;;;17.13;;
42978;SDS011;28616;44.746;19.678;2024-03-06T15:57:33;40.05;;;21.70;;
42978;SDS011;28616;44.746;19.678;2024-03-06T16:00:00;31.48;;;17.60;;
42978;SDS011;28616;44.746;19.678;2024-03-06T16:02:27;51.03;;;25.10;;
42978;SDS011;28616;44.746;19.678;2024-03-06T16:07:17;56.10;;;32.00;;
42978;SDS011;28616;44.746;19.678;2024-03-06T16:09:43;61.35;;;33.08;;
42978;SDS011;28616;44.746;19.678;2024-03-06T16:12:09;45.00;;;24.98;;
42978;SDS011;28616;44.746;19.678;2024-03-06T16:14:34;59.80;;;30.85;;
42978;SDS011;28616;44.746;19.678;2024-03-06T16:17:00;50.88;;;29.65;;
42978;SDS011;28616;44.746;19.678;2024-03-06T16:19:32;55.08;;;30.85;;
42978;SDS011;28616;44.746;19.678;2024-03-06T16:21:59;67.88;;;34.50;;
42978;SDS011;28616;44.746;19.678;2024-03-06T16:24:25;57.88;;;30.88;;
42978;SDS011;28616;44.746;19.678;2024-03-06T16:26:51;96.20;;;44.90;;
42978;SDS011;28616;44.746;19.678;2024-03-06T16:29:17;107.22;;;51.80;;
42978;SDS011;28616;44.746;19.678;2024-03-06T16:31:43;109.35;;;56.33;;
42978;SDS011;28616;44.746;19.678;2024-03-06T16:34:09;107.65;;;62.20;;
42978;SDS011;28616;44.746;19.678;2024-03-06T16:36:35;97.78;;;50.47;;
42978;SDS011;28616;44.746;19.678;2024-03-06T16:39:00;82.30;;;43.92;;
42978;SDS011;28616;44.746;19.678;2024-03-06T16:41:30;88.63;;;43.97;;
42978;SDS011;28616;44.746;19.678;2024-03-06T16:43:56;61.25;;;30.00;;
42978;SDS011;28616;44.746;19.678;2024-03-06T16:46:21;63.65;;;31.70;;
42978;SDS011;28616;44.746;19.678;2024-03-06T16:48:52;66.17;;;34.57;;
42978;SDS011;28616;44.746;19.678;2024-03-06T16:51:19;94.38;;;43.67;;
42978;SDS011;28616;44.746;19.678;2024-03-06T16:53:46;74.60;;;36.45;;
42978;SDS011;28616;44.746;19.678;2024-03-06T16:56:12;76.53;;;38.10;;
42978;SDS011;28616;44.746;19.678;2024-03-06T16:58:38;79.10;;;37.85;;
42978;SDS011;28616;44.746;19.678;2024-03-06T17:01:04;88.60;;;44.60;;
42978;SDS011;28616;44.746;19.678;2024-03-06T17:03:30;87.47;;;44.40;;
42978;SDS011;28616;44.746;19.678;2024-03-06T17:05:56;110.95;;;49.13;;
42978;SDS011;28616;44.746;19.678;2024-03-06T17:08:21;116.00;;;55.28;;
42978;SDS011;28616;44.746;19.678;2024-03-06T17:10:47;156.38;;;67.40;;
42978;SDS011;28616;44.746;19.678;2024-03-06T17:13:13;182.32;;;84.85;;
42978;SDS011;28616;44.746;19.678;2024-03-06T17:15:39;141.20;;;65.07;;
42978;SDS011;28616;44.746;19.678;2024-03-06T17:18:07;117.18;;;54.85;;
42978;SDS011;28616;44.746;19.678;2024-03-06T17:20:33;100.22;;;49.85;;
42978;SDS011;28616;44.746;19.678;2024-03-06T17:22:59;89.30;;;48.13;;
42978;SDS011;28616;44.746;19.678;2024-03-06T17:25:28;128.93;;;58.85;;
42978;SDS011;28616;44.746;19.678;2024-03-06T17:27:54;161.88;;;72.18;;
42978;SDS011;28616;44.746;19.678;2024-03-06T17:30:20;143.82;;;68.93;;
42978;SDS011;28616;44.746;19.678;2024-03-06T17:32:47;179.60;;;77.50;;
42978;SDS011;28616;44.746;19.678;2024-03-06T17:35:15;186.23;;;88.55;;
42978;SDS011;28616;44.746;19.678;2024-03-06T17:37:41;176.15;;;75.43;;
42978;SDS011;28616;44.746;19.678;2024-03-06T17:40:06;139.25;;;59.08;;
42978;SDS011;28616;44.746;19.678;2024-03-06T17:42:36;163.23;;;68.40;;
42978;SDS011;28616;44.746;19.678;2024-03-06T17:45:04;128.45;;;53.53;;
42978;SDS011;28616;44.746;19.678;2024-03-06T17:47:32;198.73;;;71.43;;
42978;SDS011;28616;44.746;19.678;2024-03-06T17:50:01;178.70;;;68.75;;
42978;SDS011;28616;44.746;19.678;2024-03-06T17:52:31;160.98;;;61.28;;
42978;SDS011;28616;44.746;19.678;2024-03-06T17:54:57;185.85;;;74.90;;
42978;SDS011;28616;44.746;19.678;2024-03-06T17:57:23;161.60;;;63.70;;
42978;SDS011;28616;44.746;19.678;2024-03-06T17:59:50;149.90;;;62.55;;
42978;SDS011;28616;44.746;19.678;2024-03-06T18:02:16;142.07;;;59.17;;
42978;SDS011;28616;44.746;19.678;2024-03-06T18:04:41;149.98;;;63.33;;
42978;SDS011;28616;44.746;19.678;2024-03-06T18:07:09;159.02;;;65.85;;
42978;SDS011;28616;44.746;19.678;2024-03-06T18:09:35;175.73;;;76.35;;
42978;SDS011;28616;44.746;19.678;2024-03-06T18:12:00;151.95;;;66.43;;
42978;SDS011;28616;44.746;19.678;2024-03-06T18:14:26;143.13;;;65.68;;
42978;SDS011;28616;44.746;19.678;2024-03-06T18:16:52;140.38;;;59.85;;
42978;SDS011;28616;44.746;19.678;2024-03-06T18:19:18;152.23;;;69.43;;
42978;SDS011;28616;44.746;19.678;2024-03-06T18:21:44;167.30;;;75.88;;
42978;SDS011;28616;44.746;19.678;2024-03-06T18:24:12;161.85;;;80.05;;
42978;SDS011;28616;44.746;19.678;2024-03-06T18:26:42;228.45;;;112.30;;
42978;SDS011;28616;44.746;19.678;2024-03-06T18:29:10;300.03;;;133.07;;
42978;SDS011;28616;44.746;19.678;2024-03-06T18:31:36;259.58;;;117.60;;
42978;SDS011;28616;44.746;19.678;2024-03-06T18:34:03;210.73;;;104.22;;
42978;SDS011;28616;44.746;19.678;2024-03-06T18:36:28;185.85;;;92.40;;
42978;SDS011;28616;44.746;19.678;2024-03-06T18:38:54;175.73;;;86.80;;
42978;SDS011;28616;44.746;19.678;2024-03-06T18:41:20;181.10;;;88.22;;
42978;SDS011;28616;44.746;19.678;2024-03-06T18:43:46;188.40;;;93.18;;
42978;SDS011;28616;44.746;19.678;2024-03-06T18:46:12;191.25;;;93.68;;
42978;SDS011;28616;44.746;19.678;2024-03-06T18:48:38;187.02;;;94.20;;
42978;SDS011;28616;44.746;19.678;2024-03-06T18:51:04;210.88;;;102.05;;
42978;SDS011;28616;44.746;19.678;2024-03-06T18:53:30;201.77;;;99.57;;
42978;SDS011;28616;44.746;19.678;2024-03-06T18:55:56;212.27;;;102.93;;
42978;SDS011;28616;44.746;19.678;2024-03-06T18:58:21;195.02;;;98.47;;
42978;SDS011;28616;44.746;19.678;2024-03-06T19:00:47;216.50;;;103.30;;
42978;SDS011;28616;44.746;19.678;2024-03-06T19:03:15;208.73;;;99.50;;
42978;SDS011;28616;44.746;19.678;2024-03-06T19:05:40;208.25;;;97.95;;
42978;SDS011;28616;44.746;19.678;2024-03-06T19:08:06;242.18;;;113.88;;
42978;SDS011;28616;44.746;19.678;2024-03-06T19:10:32;250.55;;;113.70;;
42978;SDS011;28616;44.746;19.678;2024-03-06T19:12:58;267.52;;;124.13;;
42978;SDS011;28616;44.746;19.678;2024-03-06T19:15:23;264.88;;;122.32;;
42978;SDS011;28616;44.746;19.678;2024-03-06T19:17:50;235.10;;;116.55;;
42978;SDS011;28616;44.746;19.678;2024-03-06T19:20:16;211.27;;;100.75;;
42978;SDS011;28616;44.746;19.678;2024-03-06T19:22:42;195.70;;;93.82;;
42978;SDS011;28616;44.746;19.678;2024-03-06T19:25:08;161.57;;;83.20;;
42978;SDS011;28616;44.746;19.678;2024-03-06T19:27:35;158.32;;;80.30;;
42978;SDS011;28616;44.746;19.678;2024-03-06T19:30:04;178.18;;;91.25;;
42978;SDS011;28616;44.746;19.678;2024-03-06T19:32:30;188.38;;;91.05;;
42978;SDS011;28616;44.746;19.678;2024-03-06T19:34:56;255.07;;;102.25;;
42978;SDS011;28616;44.746;19.678;2024-03-06T19:37:22;196.25;;;87.22;;
42978;SDS011;28616;44.746;19.678;2024-03-06T19:39:47;181.73;;;82.97;;
42978;SDS011;28616;44.746;19.678;2024-03-06T19:42:15;332.42;;;124.40;;
42978;SDS011;28616;44.746;19.678;2024-03-06T19:44:41;320.73;;;121.78;;
42978;SDS011;28616;44.746;19.678;2024-03-06T19:47:07;291.95;;;114.57;;
42978;SDS011;28616;44.746;19.678;2024-03-06T19:49:33;484.80;;;215.57;;
42978;SDS011;28616;44.746;19.678;2024-03-06T19:51:59;245.55;;;112.75;;
42978;SDS011;28616;44.746;19.678;2024-03-06T19:54:25;154.02;;;80.75;;
42978;SDS011;28616;44.746;19.678;2024-03-06T19:56:53;147.82;;;74.07;;
42978;SDS011;28616;44.746;19.678;2024-03-06T19:59:23;155.05;;;70.72;;
42978;SDS011;28616;44.746;19.678;2024-03-06T20:01:49;213.73;;;90.00;;
42978;SDS011;28616;44.746;19.678;2024-03-06T20:04:15;204.23;;;87.53;;
42978;SDS011;28616;44.746;19.678;2024-03-06T20:06:40;248.45;;;98.45;;
42978;SDS011;28616;44.746;19.678;2024-03-06T20:09:06;218.07;;;87.65;;
42978;SDS011;28616;44.746;19.678;2024-03-06T20:11:33;130.85;;;67.28;;
42978;SDS011;28616;44.746;19.678;2024-03-06T20:13:59;209.25;;;71.93;;
42978;SDS011;28616;44.746;19.678;2024-03-06T20:16:25;195.60;;;74.55;;
42978;SDS011;28616;44.746;19.678;2024-03-06T20:18:51;131.00;;;55.35;;
42978;SDS011;28616;44.746;19.678;2024-03-06T20:21:16;123.80;;;56.35;;
42978;SDS011;28616;44.746;19.678;2024-03-06T20:23:42;118.18;;;52.25;;
42978;SDS011;28616;44.746;19.678;2024-03-06T20:26:08;160.70;;;64.97;;
42978;SDS011;28616;44.746;19.678;2024-03-06T20:28:36;144.70;;;58.80;;
42978;SDS011;28616;44.746;19.678;2024-03-06T20:31:02;94.82;;;45.78;;
42978;SDS011;28616;44.746;19.678;2024-03-06T20:33:32;82.82;;;41.55;;
42978;SDS011;28616;44.746;19.678;2024-03-06T20:35:58;64.40;;;34.38;;
42978;SDS011;28616;44.746;19.678;2024-03-06T20:38:23;64.45;;;33.38;;
42978;SDS011;28616;44.746;19.678;2024-03-06T20:40:50;63.75;;;32.72;;
42978;SDS011;28616;44.746;19.678;2024-03-06T20:43:16;60.35;;;32.03;;
42978;SDS011;28616;44.746;19.678;2024-03-06T20:45:44;59.53;;;31.17;;
42978;SDS011;28616;44.746;19.678;2024-03-06T20:48:13;95.90;;;45.33;;
42978;SDS011;28616;44.746;19.678;2024-03-06T20:50:39;84.25;;;41.40;;
42978;SDS011;28616;44.746;19.678;2024-03-06T20:53:05;93.70;;;47.75;;
42978;SDS011;28616;44.746;19.678;2024-03-06T20:55:31;114.30;;;54.28;;
42978;SDS011;28616;44.746;19.678;2024-03-06T20:57:57;116.28;;;60.20;;
42978;SDS011;28616;44.746;19.678;2024-03-06T21:00:22;129.35;;;61.92;;
42978;SDS011;28616;44.746;19.678;2024-03-06T21:02:48;167.60;;;73.72;;
42978;SDS011;28616;44.746;19.678;2024-03-06T21:05:14;156.52;;;70.65;;
42978;SDS011;28616;44.746;19.678;2024-03-06T21:07:41;152.52;;;67.55;;
42978;SDS011;28616;44.746;19.678;2024-03-06T21:10:08;133.27;;;61.35;;
42978;SDS011;28616;44.746;19.678;2024-03-06T21:12:34;107.00;;;52.53;;
42978;SDS011;28616;44.746;19.678;2024-03-06T21:15:04;105.45;;;53.83;;
42978;SDS011;28616;44.746;19.678;2024-03-06T21:17:31;112.53;;;55.00;;
42978;SDS011;28616;44.746;19.678;2024-03-06T21:19:56;139.70;;;61.03;;
42978;SDS011;28616;44.746;19.678;2024-03-06T21:22:22;168.27;;;73.93;;
42978;SDS011;28616;44.746;19.678;2024-03-06T21:24:50;162.38;;;74.50;;
42978;SDS011;28616;44.746;19.678;2024-03-06T21:27:16;140.88;;;64.07;;
42978;SDS011;28616;44.746;19.678;2024-03-06T21:29:46;124.43;;;58.55;;
42978;SDS011;28616;44.746;19.678;2024-03-06T21:32:12;114.07;;;56.92;;
42978;SDS011;28616;44.746;19.678;2024-03-06T21:34:41;130.93;;;54.58;;
42978;SDS011;28616;44.746;19.678;2024-03-06T21:37:08;106.25;;;41.83;;
42978;SDS011;28616;44.746;19.678;2024-03-06T21:39:37;77.68;;;36.63;;
42978;SDS011;28616;44.746;19.678;2024-03-06T21:42:03;55.00;;;26.88;;
42978;SDS011;28616;44.746;19.678;2024-03-06T21:44:30;49.90;;;22.70;;
42978;SDS011;28616;44.746;19.678;2024-03-06T21:46:56;40.33;;;17.90;;
42978;SDS011;28616;44.746;19.678;2024-03-06T21:49:22;24.73;;;12.95;;
42978;SDS011;28616;44.746;19.678;2024-03-06T21:51:48;24.30;;;13.25;;
42978;SDS011;28616;44.746;19.678;2024-03-06T21:54:14;22.10;;;11.57;;
42978;SDS011;28616;44.746;19.678;2024-03-06T21:56:39;18.70;;;10.57;;
42978;SDS011;28616;44.746;19.678;2024-03-06T21:59:05;22.48;;;10.75;;
42978;SDS011;28616;44.746;19.678;2024-03-06T22:01:31;19.92;;;11.35;;
42978;SDS011;28616;44.746;19.678;2024-03-06T22:03:57;25.80;;;13.32;;
42978;SDS011;28616;44.746;19.678;2024-03-06T22:06:24;24.50;;;11.57;;
42978;SDS011;28616;44.746;19.678;2024-03-06T22:08:50;24.38;;;11.40;;
42978;SDS011;28616;44.746;19.678;2024-03-06T22:11:16;17.98;;;9.32;;
42978;SDS011;28616;44.746;19.678;2024-03-06T22:13:45;18.65;;;8.68;;
42978;SDS011;28616;44.746;19.678;2024-03-06T22:16:11;16.23;;;8.93;;
42978;SDS011;28616;44.746;19.678;2024-03-06T22:18:37;14.35;;;7.43;;
42978;SDS011;28616;44.746;19.678;2024-03-06T22:21:03;19.42;;;9.13;;
42978;SDS011;28616;44.746;19.678;2024-03-06T22:23:29;16.15;;;8.43;;
42978;SDS011;28616;44.746;19.678;2024-03-06T22:25:57;15.50;;;8.50;;
42978;SDS011;28616;44.746;19.678;2024-03-06T22:28:24;18.33;;;10.30;;
42978;SDS011;28616;44.746;19.678;2024-03-06T22:30:50;13.55;;;8.98;;
42978;SDS011;28616;44.746;19.678;2024-03-06T22:33:16;24.00;;;10.95;;
42978;SDS011;28616;44.746;19.678;2024-03-06T22:35:42;21.15;;;10.38;;
42978;SDS011;28616;44.746;19.678;2024-03-06T22:38:07;21.13;;;11.35;;
42978;SDS011;28616;44.746;19.678;2024-03-06T22:40:34;26.45;;;11.20;;
42978;SDS011;28616;44.746;19.678;2024-03-06T22:43:01;27.35;;;12.27;;
42978;SDS011;28616;44.746;19.678;2024-03-06T22:45:27;18.35;;;10.85;;
42978;SDS011;28616;44.746;19.678;2024-03-06T22:47:52;28.05;;;12.57;;
42978;SDS011;28616;44.746;19.678;2024-03-06T22:50:18;22.50;;;11.13;;
42978;SDS011;28616;44.746;19.678;2024-03-06T22:52:44;23.98;;;11.80;;
42978;SDS011;28616;44.746;19.678;2024-03-06T22:55:10;26.20;;;12.02;;
42978;SDS011;28616;44.746;19.678;2024-03-06T22:57:35;29.02;;;14.05;;
42978;SDS011;28616;44.746;19.678;2024-03-06T23:00:02;35.45;;;15.65;;
42978;SDS011;28616;44.746;19.678;2024-03-06T23:02:32;32.37;;;14.33;;
42978;SDS011;28616;44.746;19.678;2024-03-06T23:04:58;36.67;;;15.63;;
42978;SDS011;28616;44.746;19.678;2024-03-06T23:07:24;31.77;;;15.77;;
42978;SDS011;28616;44.746;19.678;2024-03-06T23:09:49;32.00;;;14.32;;
42978;SDS011;28616;44.746;19.678;2024-03-06T23:12:15;33.70;;;15.07;;
42978;SDS011;28616;44.746;19.678;2024-03-06T23:14:44;34.97;;;15.82;;
42978;SDS011;28616;44.746;19.678;2024-03-06T23:17:10;38.35;;;16.80;;
42978;SDS011;28616;44.746;19.678;2024-03-06T23:19:35;39.60;;;17.15;;
42978;SDS011;28616;44.746;19.678;2024-03-06T23:22:01;46.60;;;19.48;;
42978;SDS011;28616;44.746;19.678;2024-03-06T23:24:27;44.30;;;20.33;;
42978;SDS011;28616;44.746;19.678;2024-03-06T23:26:53;38.65;;;18.38;;
42978;SDS011;28616;44.746;19.678;2024-03-06T23:29:20;33.70;;;17.05;;
42978;SDS011;28616;44.746;19.678;2024-03-06T23:31:45;30.38;;;16.40;;
42978;SDS011;28616;44.746;19.678;2024-03-06T23:34:11;37.53;;;18.50;;
42978;SDS011;28616;44.746;19.678;2024-03-06T23:36:37;34.72;;;17.75;;
42978;SDS011;28616;44.746;19.678;2024-03-06T23:39:04;28.90;;;16.52;;
42978;SDS011;28616;44.746;19.678;2024-03-06T23:41:33;32.35;;;16.00;;
42978;SDS011;28616;44.746;19.678;2024-03-06T23:44:00;26.73;;;14.80;;
42978;SDS011;28616;44.746;19.678;2024-03-06T23:46:27;26.50;;;14.60;;
42978;SDS011;28616;44.746;19.678;2024-03-06T23:48:52;33.53;;;15.82;;
42978;SDS011;28616;44.746;19.678;2024-03-06T23:51:18;31.33;;;17.20;;
42978;SDS011;28616;44.746;19.678;2024-03-06T23:53:44;36.88;;;15.98;;
42978;SDS011;28616;44.746;19.678;2024-03-06T23:56:10;36.97;;;16.33;;
42978;SDS011;28616;44.746;19.678;2024-03-06T23:58:36;31.02;;;15.80;;
